Time;durP1;ratioP1;P1;durP2;ratioP2;P2;SDS_P1;SDS_P2;PMS_P1;PMS_P2;Temp;Humidity;BMP_temperature;BMP_pressure;BME280_temperature;BME280_humidity;BME280_pressure;Samples;Min_cycle;Max_cycle;Signal;HPM_P1;HPM_P2
2022/11/21 00:01:21;;;;;;;;;4.00;1.00;;;;;10.36;100.00;100881.50;5096863;27;56123;-74
2022/11/21 00:03:46;;;;;;;;;2.00;0.67;;;;;10.35;100.00;100885.91;5095776;27;45536;-74
2022/11/21 00:06:12;;;;;;;;;3.33;0.00;;;;;10.33;100.00;100884.09;5096885;27;46825;-74
2022/11/21 00:08:37;;;;;;;;;4.00;1.00;;;;;10.35;100.00;100883.28;5096660;27;45359;-74
2022/11/21 00:11:03;;;;;;;;;1.67;1.00;;;;;10.33;100.00;100879.72;5096512;27;45298;-76
2022/11/21 00:13:28;;;;;;;;;0.00;0.00;;;;;10.37;100.00;100883.28;5096441;27;45382;-74
2022/11/21 00:15:53;;;;;;;;;2.00;1.00;;;;;10.39;100.00;100878.94;5094270;27;57986;-75
2022/11/21 00:18:18;;;;;;;;;3.33;1.00;;;;;10.38;100.00;100867.44;5096149;27;54809;-76
2022/11/21 00:20:44;;;;;;;;;2.00;1.00;;;;;10.36;100.00;100874.47;5092171;27;62761;-76
2022/11/21 00:23:09;;;;;;;;;1.33;1.33;;;;;10.40;100.00;100878.94;5094024;27;56073;-74
2022/11/21 00:25:35;;;;;;;;;6.00;1.00;;;;;10.44;100.00;100861.41;5094890;27;46792;-75
2022/11/21 00:28:01;;;;;;;;;2.33;0.33;;;;;10.48;100.00;100852.63;5093724;27;45500;-76
2022/11/21 00:30:27;;;;;;;;;3.00;1.33;;;;;10.52;100.00;100846.50;5110666;27;45538;-74
2022/11/21 00:32:52;;;;;;;;;4.33;1.00;;;;;10.53;100.00;100843.00;5091837;27;45370;-76
2022/11/21 00:35:17;;;;;;;;;5.33;0.33;;;;;10.57;100.00;100841.28;5110716;27;46606;-75
2022/11/21 00:37:43;;;;;;;;;2.67;1.00;;;;;10.59;100.00;100835.13;5093117;27;45333;-75
2022/11/21 00:40:09;;;;;;;;;3.33;1.00;;;;;10.65;100.00;100839.59;5112362;27;45468;-77
2022/11/21 00:42:34;;;;;;;;;7.00;1.00;;;;;10.65;100.00;100831.69;5093602;27;45499;-74
2022/11/21 00:45:00;;;;;;;;;1.67;1.00;;;;;10.68;100.00;100829.09;5093738;27;46012;-75
2022/11/21 00:47:25;;;;;;;;;2.33;0.00;;;;;10.73;100.00;100835.31;5095830;27;63873;-73
2022/11/21 00:49:50;;;;;;;;;2.00;1.00;;;;;10.70;100.00;100822.94;5094577;27;60668;-74
2022/11/21 00:52:16;;;;;;;;;1.67;0.00;;;;;10.71;100.00;100823.84;5094309;27;57625;-74
2022/11/21 00:54:42;;;;;;;;;5.67;0.00;;;;;10.72;100.00;100815.06;5095382;27;46731;-74
2022/11/21 00:57:07;;;;;;;;;2.33;1.00;;;;;10.73;100.00;100820.34;5093785;27;45428;-76
2022/11/21 00:59:32;;;;;;;;;1.67;1.00;;;;;10.74;100.00;100814.19;5095415;27;45342;-75
2022/11/21 01:01:58;;;;;;;;;2.33;1.00;;;;;10.71;100.00;100808.88;5094890;27;45422;-74
2022/11/21 01:04:23;;;;;;;;;4.00;1.00;;;;;10.72;100.00;100810.66;5092239;27;63819;-74
2022/11/21 01:06:49;;;;;;;;;0.67;0.00;;;;;10.71;100.00;100800.09;5094289;27;60024;-75
2022/11/21 01:09:14;;;;;;;;;3.00;1.00;;;;;10.67;100.00;100798.28;5091309;27;55954;-75
2022/11/21 01:11:39;;;;;;;;;4.00;2.00;;;;;10.68;100.00;100802.69;5092101;27;51451;-76
2022/11/21 01:14:05;;;;;;;;;4.00;1.00;;;;;10.68;100.00;100800.91;5084422;27;68548;-75
2022/11/21 01:16:31;;;;;;;;;0.67;0.00;;;;;10.63;100.00;100788.53;5089163;27;45386;-77
2022/11/21 01:18:57;;;;;;;;;3.00;2.00;;;;;10.61;100.00;100790.28;5089450;27;47255;-74
2022/11/21 01:21:28;;;;;;;;;0.00;0.00;;;;;10.56;100.00;100787.59;5091138;27;45366;-74
2022/11/21 01:23:54;;;;;;;;;2.00;1.00;;;;;10.58;100.00;100780.56;5092494;27;46815;-75
2022/11/21 01:26:22;;;;;;;;;0.33;0.00;;;;;10.59;100.00;100777.06;5090735;27;45388;-75
2022/11/21 01:28:48;;;;;;;;;0.33;0.33;;;;;10.62;100.00;100790.31;5093697;27;45329;-74
2022/11/21 01:31:27;;;;;;;;;3.33;0.00;;;;;10.63;100.00;100786.78;5088812;27;45294;-76
2022/11/21 01:33:53;;;;;;;;;2.33;2.00;;;;;10.65;100.00;100779.78;5091568;27;46032;-74
2022/11/21 01:36:24;;;;;;;;;1.00;1.00;;;;;10.67;100.00;100772.75;5088564;27;45312;-74
2022/11/21 01:38:54;;;;;;;;;3.00;1.00;;;;;10.66;100.00;100778.03;5083251;27;45586;-74
2022/11/21 01:41:32;;;;;;;;;1.00;1.00;;;;;10.61;100.00;100770.06;5082775;27;45413;-74
2022/11/21 01:44:01;;;;;;;;;1.67;1.00;;;;;10.58;100.00;100762.09;5090756;27;46655;-74
2022/11/21 01:46:27;;;;;;;;;1.67;1.00;;;;;10.56;100.00;100758.56;5090746;27;45507;-74
2022/11/21 01:49:08;;;;;;;;;2.00;1.33;;;;;10.52;100.00;100759.41;5092494;27;63596;-75
2022/11/21 01:51:53;;;;;;;;;2.33;1.00;;;;;10.52;100.00;100747.94;5095513;27;45222;-74
2022/11/21 01:54:40;;;;;;;;;3.67;1.00;;;;;10.50;100.00;100750.59;5095789;27;45675;-73
2022/11/21 01:57:34;;;;;;;;;1.00;1.00;;;;;10.48;100.00;100742.63;5095525;27;45295;-75
2022/11/21 02:00:09;;;;;;;;;3.00;1.67;;;;;10.41;100.00;100740.81;5094349;27;45559;-75
2022/11/21 02:02:37;;;;;;;;;1.00;1.00;;;;;10.37;100.00;100739.00;5082773;27;45498;-76
2022/11/21 02:05:06;;;;;;;;;2.33;2.00;;;;;10.36;100.00;100750.44;5093805;27;46699;-74
2022/11/21 02:07:34;;;;;;;;;1.00;1.00;;;;;10.33;100.00;100742.47;5093985;27;45342;-74
2022/11/21 02:10:01;;;;;;;;;1.00;1.00;;;;;10.29;100.00;100745.09;5097540;27;45456;-74
2022/11/21 02:12:38;;;;;;;;;1.00;1.00;;;;;10.29;100.00;100739.81;5091476;27;45455;-75
2022/11/21 02:15:05;;;;;;;;;3.00;1.75;;;;;10.27;100.00;100725.69;5097837;27;47236;-74
2022/11/21 02:17:30;;;;;;;;;4.00;1.00;;;;;10.28;100.00;100732.72;5091491;27;45249;-74
2022/11/21 02:19:58;;;;;;;;;2.00;1.00;;;;;10.28;100.00;100722.19;5102285;27;45454;-74
2022/11/21 02:22:43;;;;;;;;;1.00;1.00;;;;;10.28;100.00;100712.53;5091106;27;45457;-74
2022/11/21 02:25:28;;;;;;;;;1.00;1.00;;;;;10.27;100.00;100707.22;5093694;27;46270;-74
2022/11/21 02:28:00;;;;;;;;;2.00;1.00;;;;;10.24;100.00;100705.44;5091071;27;45476;-76
2022/11/21 02:30:26;;;;;;;;;1.00;1.00;;;;;10.25;100.00;100706.34;5095970;27;45442;-76
2022/11/21 02:32:52;;;;;;;;;3.33;0.00;;;;;10.24;100.00;100700.16;5088819;27;45461;-77
2022/11/21 02:35:18;;;;;;;;;2.00;2.00;;;;;10.20;100.00;100688.66;5112300;27;46726;-75
2022/11/21 02:37:46;;;;;;;;;1.00;1.00;;;;;10.24;100.00;100697.53;5086644;27;45631;-74
2022/11/21 02:40:24;;;;;;;;;2.00;1.00;;;;;10.20;100.00;100693.06;5097590;27;45424;-74
2022/11/21 02:43:21;;;;;;;;;2.00;1.00;;;;;10.23;100.00;100706.28;5090268;27;45630;-74
2022/11/21 02:45:46;;;;;;;;;3.00;1.00;;;;;10.19;100.00;100692.16;5093553;27;46088;-74
2022/11/21 02:48:12;;;;;;;;;1.33;1.00;;;;;10.20;100.00;100693.94;5095605;27;45390;-74
2022/11/21 02:50:40;;;;;;;;;2.00;2.00;;;;;10.20;100.00;100687.78;5098603;27;45283;-76
2022/11/21 02:53:08;;;;;;;;;4.00;1.00;;;;;10.19;100.00;100680.75;5097776;27;45365;-74
2022/11/21 02:55:33;;;;;;;;;2.00;1.00;;;;;10.17;100.00;100675.47;5096880;27;46330;-74
2022/11/21 02:57:59;;;;;;;;;2.67;2.67;;;;;10.18;100.00;100678.97;5093469;27;65312;-74
2022/11/21 03:00:25;;;;;;;;;2.33;1.00;;;;;10.20;100.00;100670.19;5113206;27;63515;-74
2022/11/21 03:02:50;;;;;;;;;2.00;1.00;;;;;10.19;100.00;100671.06;5093170;27;61318;-74
2022/11/21 03:05:17;;;;;;;;;1.00;1.00;;;;;10.18;100.00;100674.56;5097760;27;51183;-74
2022/11/21 03:07:42;;;;;;;;;3.00;0.00;;;;;10.16;100.00;100672.78;5096535;27;45474;-74
2022/11/21 03:10:08;;;;;;;;;3.75;1.75;;;;;10.18;100.00;100674.56;5091602;27;46283;-74
2022/11/21 03:12:41;;;;;;;;;1.50;1.00;;;;;10.21;100.00;100666.69;5090585;27;45609;-76
2022/11/21 03:15:10;;;;;;;;;1.67;1.00;;;;;10.22;100.00;100664.91;5096540;27;45559;-74
2022/11/21 03:17:35;;;;;;;;;3.33;1.00;;;;;10.25;100.00;100653.56;5090112;27;45466;-74
2022/11/21 03:20:01;;;;;;;;;4.00;1.00;;;;;10.25;100.00;100648.28;5091596;27;45388;-75
2022/11/21 03:22:26;;;;;;;;;7.67;1.00;;;;;10.25;100.00;100640.38;5096948;27;45598;-75
2022/11/21 03:24:51;;;;;;;;;3.67;1.00;;;;;10.26;100.00;100628.94;5096901;27;63278;-74
2022/11/21 03:27:17;;;;;;;;;1.67;1.67;;;;;10.30;100.00;100630.75;5096921;27;63561;-74
2022/11/21 03:29:42;;;;;;;;;0.33;0.33;;;;;10.27;100.00;100628.06;5096547;27;45409;-74
2022/11/21 03:32:08;;;;;;;;;2.00;1.00;;;;;10.26;100.00;100621.91;5092897;27;59216;-74
2022/11/21 03:34:33;;;;;;;;;2.00;1.00;;;;;10.28;100.00;100625.44;5093547;27;46731;-77
2022/11/21 03:36:58;;;;;;;;;1.33;1.33;;;;;10.27;100.00;100612.22;5095922;27;65044;-74
2022/11/21 03:39:24;;;;;;;;;2.67;1.67;;;;;10.27;100.00;100612.22;5096779;27;62453;-74
2022/11/21 03:41:49;;;;;;;;;3.67;1.00;;;;;10.26;100.00;100613.97;5096534;27;45573;-74
2022/11/21 03:44:15;;;;;;;;;3.25;1.75;;;;;10.24;100.00;100599.91;5096296;27;68779;-74
2022/11/21 03:46:44;;;;;;;;;2.00;1.00;;;;;10.30;100.00;100599.06;5093904;27;45539;-74
2022/11/21 03:49:10;;;;;;;;;2.00;1.00;;;;;10.30;100.00;100588.50;5097793;27;45247;-74
2022/11/21 03:51:36;;;;;;;;;3.00;1.33;;;;;10.32;100.00;100582.34;5096749;27;45311;-74
2022/11/21 03:54:02;;;;;;;;;3.75;1.50;;;;;10.33;100.00;100572.69;5095691;27;46889;-75
2022/11/21 03:56:28;;;;;;;;;0.67;0.67;;;;;10.29;100.00;100574.44;5096218;27;45270;-75
2022/11/21 03:58:53;;;;;;;;;2.33;1.00;;;;;10.29;100.00;100574.44;5093229;27;45901;-74
2022/11/21 04:01:19;;;;;;;;;3.33;1.00;;;;;10.29;100.00;100565.63;5093533;27;45342;-76
2022/11/21 04:03:45;;;;;;;;;1.67;1.00;;;;;10.23;100.00;100555.88;5095280;27;63551;-74
2022/11/21 04:06:12;;;;;;;;;3.00;1.67;;;;;10.24;100.00;100552.41;5093123;27;45435;-74
2022/11/21 04:08:38;;;;;;;;;3.00;1.33;;;;;10.21;100.00;100558.50;5097693;27;45261;-74
2022/11/21 04:11:03;;;;;;;;;3.33;2.00;;;;;10.16;100.00;100544.38;5095686;27;45472;-75
2022/11/21 04:13:29;;;;;;;;;4.67;1.00;;;;;10.13;100.00;100532.94;5088001;27;46366;-75
2022/11/21 04:15:54;;;;;;;;;1.00;1.00;;;;;10.09;100.00;100524.09;5097070;27;45484;-74
2022/11/21 04:18:20;;;;;;;;;4.00;1.00;;;;;10.06;100.00;100518.78;5096093;27;59246;-74
2022/11/21 04:20:46;;;;;;;;;7.33;1.00;;;;;10.02;100.00;100524.06;5094664;27;45657;-74
2022/11/21 04:23:11;;;;;;;;;1.25;1.25;;;;;9.99;100.00;100511.72;5095837;27;45501;-74
2022/11/21 04:25:36;;;;;;;;;3.00;2.75;;;;;9.94;100.00;100508.16;5094060;27;45361;-74
2022/11/21 04:28:03;;;;;;;;;2.00;0.33;;;;;9.88;100.00;100497.56;5097124;27;45756;-76
2022/11/21 04:30:29;;;;;;;;;2.67;1.00;;;;;9.84;100.00;100491.38;5095216;27;45516;-74
2022/11/21 04:32:55;;;;;;;;;3.00;1.00;;;;;9.78;100.00;100499.22;5111145;27;45959;-74
2022/11/21 04:35:21;;;;;;;;;2.33;1.00;;;;;9.80;100.00;100501.88;5095204;27;45324;-76
2022/11/21 04:37:47;;;;;;;;;4.50;1.50;;;;;9.76;100.00;100493.06;5096097;27;45258;-74
2022/11/21 04:40:13;;;;;;;;;1.50;1.50;;;;;9.74;100.00;100494.78;5096449;27;56252;-75
2022/11/21 04:42:46;;;;;;;;;4.00;2.00;;;;;9.69;100.00;100481.59;5096555;27;47230;-76
2022/11/21 04:45:13;;;;;;;;;3.00;1.50;;;;;9.67;100.00;100479.78;5094426;27;45302;-76
2022/11/21 04:47:40;;;;;;;;;1.75;1.00;;;;;9.69;100.00;100485.94;5095432;27;45350;-74
2022/11/21 04:50:06;;;;;;;;;1.00;0.00;;;;;9.67;100.00;100480.69;5077775;27;45377;-74
2022/11/21 04:52:32;;;;;;;;;4.75;1.50;;;;;9.66;100.00;100468.38;5095237;27;45985;-74
2022/11/21 04:54:57;;;;;;;;;3.75;1.00;;;;;9.65;100.00;100468.38;5091127;27;65562;-76
2022/11/21 04:57:23;;;;;;;;;1.00;1.00;;;;;9.66;100.00;100454.31;5093988;27;45361;-74
2022/11/21 04:59:48;;;;;;;;;3.75;2.00;;;;;9.69;100.00;100463.13;5091771;27;61196;-74
2022/11/21 05:02:13;;;;;;;;;4.00;2.00;;;;;9.69;100.00;100456.94;5088403;27;66174;-74
2022/11/21 05:04:39;;;;;;;;;3.00;2.25;;;;;9.70;100.00;100446.44;5093984;27;60949;-76
2022/11/21 05:07:04;;;;;;;;;5.25;1.75;;;;;9.75;100.00;100446.50;5093890;27;56422;-76
2022/11/21 05:09:30;;;;;;;;;2.00;2.00;;;;;9.77;100.00;100436.81;5091382;27;45548;-74
2022/11/21 05:14:39;;;;;;;;;3.00;3.00;;;;;9.82;100.00;100428.94;5090477;27;45389;-74
2022/11/21 05:17:04;;;;;;;;;4.67;2.00;;;;;9.82;100.00;100421.94;5094117;27;58498;-76
2022/11/21 05:19:29;;;;;;;;;7.33;1.67;;;;;9.83;100.00;100415.78;5095103;27;59201;-74
2022/11/21 05:21:55;;;;;;;;;4.00;2.00;;;;;9.85;100.00;100416.66;5095811;27;46100;-74
2022/11/21 05:24:20;;;;;;;;;5.33;2.00;;;;;9.84;100.00;100414.00;5094890;27;45382;-74
2022/11/21 05:26:46;;;;;;;;;4.00;1.00;;;;;9.87;100.00;100414.94;5095495;27;45964;-74
2022/11/21 05:29:11;;;;;;;;;2.00;2.00;;;;;9.88;100.00;100416.69;5092319;27;61916;-74
2022/11/21 05:31:37;;;;;;;;;5.00;2.00;;;;;9.90;100.00;100419.31;5095929;27;45482;-74
2022/11/21 05:34:02;;;;;;;;;3.75;2.00;;;;;9.92;100.00;100415.84;5095597;27;45242;-76
2022/11/21 05:36:28;;;;;;;;;3.00;2.00;;;;;9.94;100.00;100406.19;5095071;27;61545;-76
2022/11/21 05:38:53;;;;;;;;;3.25;2.00;;;;;10.00;100.00;100428.19;5095705;27;45474;-74
2022/11/21 05:41:18;;;;;;;;;3.00;2.00;;;;;9.99;100.00;100411.50;5095020;27;71328;-74
2022/11/21 05:43:46;;;;;;;;;6.75;2.75;;;;;10.04;100.00;100411.53;5096433;27;61356;-75
2022/11/21 05:46:23;;;;;;;;;5.25;2.00;;;;;10.07;100.00;100407.16;5099431;27;45454;-74
2022/11/21 05:48:49;;;;;;;;;4.00;2.33;;;;;10.13;100.00;100408.94;5099224;27;45464;-74
2022/11/21 05:51:15;;;;;;;;;4.50;2.00;;;;;10.19;100.00;100395.78;5087279;27;48012;-73
2022/11/21 05:53:41;;;;;;;;;6.33;1.67;;;;;10.22;100.00;100383.47;5095667;27;45275;-76
2022/11/21 05:56:12;;;;;;;;;6.00;3.50;;;;;10.27;100.00;100382.66;5098123;27;45450;-74
2022/11/21 05:58:38;;;;;;;;;6.00;2.33;;;;;10.32;100.00;100392.34;5098243;27;45470;-74
2022/11/21 06:01:04;;;;;;;;;5.00;2.00;;;;;10.34;100.00;100379.19;5096861;27;46354;-74
2022/11/21 06:03:35;;;;;;;;;4.33;2.00;;;;;10.36;100.00;100372.16;5079007;27;45462;-74
2022/11/21 06:06:14;;;;;;;;;3.75;3.00;;;;;10.38;100.00;100370.38;5057523;28;45395;-76
2022/11/21 06:08:44;;;;;;;;;5.67;2.33;;;;;10.40;100.00;100363.38;5074832;28;45300;-74
2022/11/21 06:11:13;;;;;;;;;7.33;2.00;;;;;10.37;100.00;100358.97;5073264;28;45920;-74
2022/11/21 06:13:38;;;;;;;;;7.00;2.00;;;;;10.41;100.00;100349.31;5077803;28;45470;-74
2022/11/21 06:16:09;;;;;;;;;3.25;3.00;;;;;10.37;100.00;100332.56;5059798;28;45387;-76
2022/11/21 06:18:37;;;;;;;;;5.00;2.67;;;;;10.41;100.00;100318.50;5055934;28;45513;-75
2022/11/21 06:21:14;;;;;;;;;3.00;3.00;;;;;10.38;100.00;100309.69;5059901;28;46099;-74
2022/11/21 06:23:40;;;;;;;;;4.00;3.00;;;;;10.34;100.00;100310.59;5059589;28;45903;-74
2022/11/21 06:26:07;;;;;;;;;3.00;3.00;;;;;10.31;100.00;100321.13;5072750;28;62442;-74
2022/11/21 06:28:34;;;;;;;;;6.25;3.00;;;;;10.25;100.00;100321.09;5072500;28;45610;-74
2022/11/21 06:31:13;;;;;;;;;3.25;3.00;;;;;10.22;100.00;100306.06;5053435;28;45696;-75
2022/11/21 06:33:40;;;;;;;;;4.00;3.00;;;;;10.19;100.00;100314.88;5065095;28;45757;-76
2022/11/21 06:36:07;;;;;;;;;2.75;2.00;;;;;10.14;100.00;100305.19;5071238;28;45526;-75
2022/11/21 06:38:33;;;;;;;;;7.50;3.00;;;;;10.16;100.00;100306.94;5072760;28;45568;-75
2022/11/21 06:41:25;;;;;;;;;4.00;2.00;;;;;10.17;100.00;100313.09;5065058;28;47135;-75
2022/11/21 06:43:51;;;;;;;;;5.33;2.00;;;;;10.16;100.00;100312.22;5067569;28;45526;-75
2022/11/21 06:46:17;;;;;;;;;2.00;2.00;;;;;10.14;100.00;100303.44;5076594;28;45495;-75
2022/11/21 06:48:43;;;;;;;;;8.00;4.25;;;;;10.13;100.00;100301.66;5058141;28;45417;-76
2022/11/21 06:51:16;;;;;;;;;5.25;3.00;;;;;10.12;100.00;100289.34;5050875;28;46326;-76
2022/11/21 06:53:41;;;;;;;;;6.00;3.00;;;;;10.16;100.00;100284.94;5074608;28;45422;-75
2022/11/21 06:56:06;;;;;;;;;4.00;2.50;;;;;10.16;100.00;100263.84;5068093;28;65068;-75
2022/11/21 06:58:32;;;;;;;;;2.75;2.75;;;;;10.15;100.00;100265.59;5075950;28;60146;-74
2022/11/21 07:01:06;;;;;;;;;3.50;3.00;;;;;10.13;100.00;100248.03;5055793;28;46470;-73
2022/11/21 07:03:31;;;;;;;;;6.00;3.00;;;;;10.11;100.00;100231.28;5211082;22;45682;-73
2022/11/21 07:06:00;;;;;;;;;6.75;3.50;;;;;10.09;100.00;100215.47;5133990;27;45450;-73
2022/11/21 07:08:26;;;;;;;;;4.50;3.25;;;;;10.11;100.00;100212.84;5118290;27;45582;-72
2022/11/21 07:10:51;;;;;;;;;6.50;3.25;;;;;10.08;100.00;100189.09;5137478;27;46352;-72
2022/11/21 07:13:23;;;;;;;;;2.00;2.00;;;;;10.11;100.00;100189.97;5118024;27;45531;-74
2022/11/21 07:15:51;;;;;;;;;5.25;3.00;;;;;10.12;100.00;100186.47;5120504;27;45506;-73
2022/11/21 07:18:17;;;;;;;;;7.00;2.75;;;;;10.15;100.00;100183.84;5120248;27;45484;-74
2022/11/21 07:20:43;;;;;;;;;6.25;3.50;;;;;10.17;100.00;100179.47;5115662;27;46078;-73
2022/11/21 07:23:08;;;;;;;;;7.75;3.50;;;;;10.19;100.00;100172.41;5133200;27;45268;-74
2022/11/21 07:25:34;;;;;;;;;7.00;4.00;;;;;10.21;100.00;100167.13;5118419;27;45356;-73
2022/11/21 07:28:03;;;;;;;;;11.75;7.00;;;;;10.23;100.00;100168.94;5132524;27;45418;-74
2022/11/21 07:30:29;;;;;;;;;11.50;4.00;;;;;10.21;100.00;100152.19;5107693;27;46872;-73
2022/11/21 07:32:58;;;;;;;;;7.50;3.75;;;;;10.22;100.00;100146.03;5133670;27;45479;-73
2022/11/21 07:35:23;;;;;;;;;5.25;3.00;;;;;10.22;100.00;100143.38;5125103;27;45406;-73
2022/11/21 07:37:49;;;;;;;;;10.50;6.50;;;;;10.27;100.00;100148.69;5134799;27;45495;-72
2022/11/21 07:40:14;;;;;;;;;8.75;6.75;;;;;10.28;100.00;100153.13;5131361;27;46694;-72
2022/11/21 07:42:40;;;;;;;;;5.00;4.00;;;;;10.29;100.00;100141.69;5134664;27;45527;-74
2022/11/21 07:45:06;;;;;;;;;5.75;3.00;;;;;10.30;100.00;100140.81;5131781;27;45589;-71
2022/11/21 07:47:31;;;;;;;;;9.75;6.25;;;;;10.32;100.00;100128.47;5134546;27;45554;-71
2022/11/21 07:49:56;;;;;;;;;11.50;6.50;;;;;10.34;100.00;100118.81;5118813;27;47418;-73
2022/11/21 07:52:22;;;;;;;;;13.25;7.00;;;;;10.36;100.00;100101.22;5117256;27;63905;-72
2022/11/21 07:54:47;;;;;;;;;9.75;7.50;;;;;10.33;100.00;100101.19;5115105;27;45579;-73
2022/11/21 07:57:12;;;;;;;;;7.25;7.00;;;;;10.37;100.00;100105.63;5112095;27;55027;-72
2022/11/21 07:59:37;;;;;;;;;10.00;7.75;;;;;10.40;100.00;100094.19;5135254;27;68964;-72
2022/11/21 08:02:03;;;;;;;;;10.75;5.50;;;;;10.43;100.00;100066.03;5131262;27;55837;-73
2022/11/21 08:04:28;;;;;;;;;7.00;7.00;;;;;10.44;100.00;100057.25;5129267;27;53473;-73
2022/11/21 08:06:54;;;;;;;;;9.25;8.00;;;;;10.48;100.00;100047.53;5130023;27;45562;-73
2022/11/21 08:09:19;;;;;;;;;13.00;7.50;;;;;10.48;100.00;100058.97;5132991;27;48225;-73
2022/11/21 08:11:44;;;;;;;;;8.25;7.00;;;;;10.52;100.00;100064.25;5137038;27;45474;-72
2022/11/21 08:14:10;;;;;;;;;8.50;7.00;;;;;10.51;100.00;100059.88;5112621;27;61430;-74
2022/11/21 08:16:35;;;;;;;;;5.25;5.25;;;;;10.54;100.00;100068.66;5130663;27;45541;-73
2022/11/21 08:19:01;;;;;;;;;8.50;6.50;;;;;10.53;100.00;100071.28;5134091;27;63076;-72
2022/11/21 08:21:26;;;;;;;;;7.00;6.50;;;;;10.53;100.00;100068.66;5134529;27;45435;-74
2022/11/21 08:23:52;;;;;;;;;9.25;6.50;;;;;10.55;100.00;100056.34;5133787;27;55604;-74
2022/11/21 08:26:18;;;;;;;;;14.00;7.00;;;;;10.55;100.00;100056.34;5128723;27;45180;-74
2022/11/21 08:28:43;;;;;;;;;8.00;6.25;;;;;10.58;100.00;100069.53;5129560;27;58019;-74
2022/11/21 08:31:09;;;;;;;;;8.25;8.25;;;;;10.62;100.00;100072.16;5129092;27;45281;-73
2022/11/21 08:33:34;;;;;;;;;11.75;8.50;;;;;10.62;100.00;100073.94;5114766;27;60601;-73
2022/11/21 08:36:04;;;;;;;;;10.25;5.25;;;;;10.63;100.00;100071.28;5127807;27;62885;-73
2022/11/21 08:38:30;;;;;;;;;9.75;4.00;;;;;10.65;100.00;100063.34;5128502;27;46633;-73
2022/11/21 08:43:39;;;;;;;;;8.50;8.25;;;;;10.65;100.00;100080.09;5131024;27;45472;-74
2022/11/21 08:46:04;;;;;;;;;14.50;8.25;;;;;10.64;100.00;100078.31;5135298;27;61905;-74
2022/11/21 08:48:30;;;;;;;;;15.25;9.50;;;;;10.63;100.00;100076.56;5136072;27;57835;-76
2022/11/21 08:50:58;;;;;;;;;9.00;8.00;;;;;10.66;100.00;100060.72;5132825;27;64596;-73
2022/11/21 08:53:24;;;;;;;;;10.25;7.75;;;;;10.67;100.00;100046.66;5112974;27;45333;-74
2022/11/21 08:55:49;;;;;;;;;16.50;7.75;;;;;10.71;100.00;100036.97;5129079;27;45605;-74
2022/11/21 08:58:14;;;;;;;;;12.00;10.00;;;;;10.76;100.00;100035.19;5133041;27;58824;-74
2022/11/21 09:00:40;;;;;;;;;8.75;7.75;;;;;10.78;100.00;100014.94;5125942;27;60156;-73
2022/11/21 09:03:05;;;;;;;;;10.75;9.00;;;;;10.82;100.00;99997.31;5109866;27;46677;-74
2022/11/21 09:05:32;;;;;;;;;11.00;8.50;;;;;10.81;100.00;99988.50;5115260;27;60876;-75
2022/11/21 09:07:57;;;;;;;;;11.75;8.50;;;;;10.84;100.00;100004.34;5133062;27;46807;-74
2022/11/21 09:10:24;;;;;;;;;19.00;10.25;;;;;10.86;100.00;100007.84;5113728;27;46593;-73
2022/11/21 09:12:50;;;;;;;;;7.50;7.25;;;;;10.85;100.00;100008.72;5115269;27;45520;-74
2022/11/21 09:18:03;;;;;;;;;9.25;8.00;;;;;10.90;100.00;99996.41;5130967;27;45432;-74
2022/11/21 09:20:32;;;;;;;;;10.00;9.00;;;;;10.90;100.00;99987.59;5120217;27;45405;-74
2022/11/21 09:23:03;;;;;;;;;7.00;7.00;;;;;10.91;100.00;99982.31;5119933;27;45457;-73
2022/11/21 09:25:28;;;;;;;;;8.25;7.75;;;;;10.97;100.00;99962.91;5138389;27;45657;-74
2022/11/21 09:27:58;;;;;;;;;8.25;8.00;;;;;11.00;100.00;99952.34;5119756;27;66856;-76
2022/11/21 09:30:23;;;;;;;;;8.67;8.00;;;;;11.06;100.00;99947.03;5130483;27;45727;-74
2022/11/21 09:32:48;;;;;;;;;7.25;5.00;;;;;11.09;100.00;99933.81;5135991;27;58579;-74
2022/11/21 09:35:14;;;;;;;;;13.50;8.00;;;;;11.10;100.00;99938.19;5131209;27;56888;-74
2022/11/21 09:37:39;;;;;;;;;9.33;7.33;;;;;11.11;100.00;99925.88;5133525;27;62286;-73
2022/11/21 09:40:05;;;;;;;;;8.00;5.75;;;;;11.11;100.00;99912.66;5136476;27;45446;-74
2022/11/21 09:42:58;;;;;;;;;9.00;5.67;;;;;11.12;100.00;99914.41;5114092;27;45536;-76
2022/11/21 09:45:45;;;;;;;;;7.67;5.33;;;;;11.14;100.00;99884.47;5135347;27;45390;-75
2022/11/21 09:48:13;;;;;;;;;9.00;7.00;;;;;11.15;100.00;99880.06;5130719;27;45902;-74
2022/11/21 09:50:42;;;;;;;;;5.00;5.00;;;;;11.18;100.00;99870.31;5116729;27;45701;-74
2022/11/21 09:53:13;;;;;;;;;7.00;5.00;;;;;11.21;100.00;99861.50;5119801;27;45588;-75
2022/11/21 09:55:48;;;;;;;;;9.00;5.67;;;;;11.26;100.00;99854.44;5133022;27;45398;-74
2022/11/21 09:58:36;;;;;;;;;7.33;5.67;;;;;11.31;100.00;99857.03;5135298;27;46255;-73
2022/11/21 10:01:02;;;;;;;;;7.67;5.00;;;;;11.29;100.00;99849.09;5116553;27;45502;-74
2022/11/21 10:03:42;;;;;;;;;5.00;4.00;;;;;11.31;100.00;99833.25;5119292;27;45512;-74
2022/11/21 10:06:17;;;;;;;;;8.75;7.25;;;;;11.32;100.00;99824.44;5120623;27;46039;-73
2022/11/21 10:08:49;;;;;;;;;10.00;7.00;;;;;11.35;100.00;99821.78;5131172;27;46203;-75
2022/11/21 10:11:28;;;;;;;;;8.00;5.67;;;;;11.37;100.00;99807.66;5138947;27;45385;-74
2022/11/21 10:14:16;;;;;;;;;10.00;7.00;;;;;11.38;100.00;99806.75;5135060;27;45456;-73
2022/11/21 10:17:12;;;;;;;;;7.67;7.67;;;;;11.41;100.00;99800.56;5109955;27;45583;-73
2022/11/21 10:19:53;;;;;;;;;7.00;4.00;;;;;11.41;100.00;99782.94;5117409;27;46793;-75
2022/11/21 10:22:39;;;;;;;;;8.00;5.00;;;;;11.44;100.00;99788.19;5133759;27;45462;-75
2022/11/21 10:25:15;;;;;;;;;8.00;5.00;;;;;11.47;100.00;99774.09;5135253;27;45733;-73
2022/11/21 10:27:46;;;;;;;;;9.67;7.00;;;;;11.45;100.00;99752.06;5114791;27;45469;-73
2022/11/21 10:30:18;;;;;;;;;5.00;4.00;;;;;11.49;100.00;99759.94;5114181;27;46017;-73
2022/11/21 10:32:47;;;;;;;;;10.00;9.00;;;;;11.52;100.00;99746.72;5103850;27;45527;-74
2022/11/21 10:35:22;;;;;;;;;10.33;4.33;;;;;11.55;100.00;99746.66;5113617;27;45327;-73
2022/11/21 10:37:57;;;;;;;;;5.00;4.67;;;;;11.57;100.00;99746.66;5130255;27;45530;-73
2022/11/21 10:40:32;;;;;;;;;9.67;5.00;;;;;11.59;100.00;99744.00;5113299;27;46145;-73
2022/11/21 10:45:15;;;;;;;;;8.33;7.00;;;;;11.63;100.00;99736.03;5129748;27;45523;-74
2022/11/21 10:45:52;;;;;;;;;7.33;3.67;;;;;11.65;100.00;99728.06;5116604;27;45413;-73
2022/11/21 10:48:17;;;;;;;;;4.67;3.00;;;;;11.63;100.00;99706.06;5134138;27;46452;-74
2022/11/21 10:50:50;;;;;;;;;5.67;5.00;;;;;11.64;100.00;99700.75;5133473;27;56547;-73
2022/11/21 10:56:12;;;;;;;;;4.00;4.00;;;;;11.59;100.00;99686.69;5117316;27;45513;-73
2022/11/21 10:58:46;;;;;;;;;6.00;4.00;;;;;11.57;100.00;99692.91;5117879;27;45445;-73
2022/11/21 11:01:30;;;;;;;;;9.00;4.67;;;;;11.55;100.00;99682.34;5130236;27;45929;-73
2022/11/21 11:04:11;;;;;;;;;5.00;3.00;;;;;11.51;100.00;99675.38;5114124;27;45220;-74
2022/11/21 11:06:41;;;;;;;;;3.00;3.00;;;;;11.47;100.00;99676.28;5116686;27;45478;-72
2022/11/21 11:09:08;;;;;;;;;4.00;3.33;;;;;11.47;100.00;99677.16;5129229;27;45518;-73
2022/11/21 11:11:33;;;;;;;;;5.33;3.00;;;;;11.43;100.00;99670.13;5124627;27;47585;-73
2022/11/21 11:14:12;;;;;;;;;9.67;3.67;;;;;11.48;100.00;99675.38;5108217;27;65772;-73
2022/11/21 11:16:42;;;;;;;;;7.00;3.00;;;;;11.47;100.00;99676.28;5107785;27;45507;-73
2022/11/21 11:19:14;;;;;;;;;6.33;3.67;;;;;11.45;100.00;99664.81;5108533;27;45492;-73
2022/11/21 11:21:45;;;;;;;;;3.00;3.00;;;;;11.45;100.00;99656.91;5115812;27;46734;-73
2022/11/21 11:24:13;;;;;;;;;3.00;3.00;;;;;11.46;100.00;99656.03;5110753;27;45559;-74
2022/11/21 11:26:47;;;;;;;;;3.67;2.33;;;;;11.48;100.00;99648.94;5115649;27;45235;-74
2022/11/21 11:29:20;;;;;;;;;3.00;3.00;;;;;11.48;100.00;99639.25;5114058;27;45489;-76
2022/11/21 11:31:57;;;;;;;;;3.00;2.00;;;;;11.50;100.00;99636.56;5116199;27;47181;-75
2022/11/21 11:34:25;;;;;;;;;4.00;3.00;;;;;11.47;100.00;99620.78;5115139;27;45253;-76
2022/11/21 11:37:09;;;;;;;;;7.00;3.00;;;;;11.47;100.00;99611.06;5116645;27;45385;-77